Kunsan Air Base
RKJK : now visible

Airfield :











YOU CAN JOIN US ON...

 
LOGIN :

Register | Disclaimer

   EN    FR    IT 

 









Legend :    VFR   Marginal VFR   IFR   Intensive IFR   Very Intensive IFR
Visi :
Ceiling :
>= 8 km
>= 3000ft
5 to 8 km
1000 to 3000 ft
1500m to 5 km
500 to 1000 ft
800 to 1500m
200 to 500 ft
< 800m
< 200 ft
Symbols :   Thunderstorms  Fog  Heavy snow  Heavy precipitations  Wind > 20 kt







- Airport Elevation : 29 ft
- IATA code : KUV


RKJK - Kunsan Air Base

CURRENT METAR :
  • 182356Z 01008KT 3SM -RA BR BKN016 OVC021 03/03 A3001 RMK AO2A SLPNO ALSTG ESTMD P0004 60015 70023 T00270027 10028 20021 PWINO $

EXPIRED METARs :
  • 182353Z 01009KT 3SM -RA BR BKN016 OVC021 03/03 A3001 RMK AO2A SLPNO ALSTG ESTMD PWINO $
  • 182333Z 02008KT 3SM -RA BR FEW004 OVC022 03/03 A3000 RMK AO2A SLPNO ALSTG ESTMD PWINO $
  • 182306Z 04007KT 3SM -RA BR BKN023 OVC028 02/02 A2999 RMK AO2A SLPNO ALSTG ESTMD PWINO $
  • 182256Z 04006KT 2 1/2SM -RA BR BKN024 OVC029 02/02 A2999 RMK AO2A BKN V OVC CIG 023 RWY18 SLPNO ALSTG ESTMD P0002 T00240024 PWINO $
  • 182246Z 04005KT 2 1/4SM -RA BR OVC024 02/02 A2999 RMK AO2A CIG 023 RWY18 SLPNO ALSTG ESTMD PWINO $
  • 182226Z 05005KT 2 3/4SM -RA BR FEW012 OVC024 02/02 A3000 RMK AO2A VIS 2 3/4V4 CIG 023 RWY18 SLPNO ALSTG ESTMD PWINO $
  • 182156Z 06005KT 4SM -RA BR OVC024 02/02 A3000 RMK AO2A OVC V BKN CIG 023 RWY18 SLPNO ALSTG ESTMD P0002 T00240024 PWINO $

TAF AMD TAF RKJK
Valid from the 18 at 23:00 until the 20 at 05:00 UTC


182335Z 1823/2005 05009KT 4800 -RA BR BKN025 610259 QNH2997INS
BECMG 1905/1906 35009KT 9999 NSW SCT020 QNH3005INS
BECMG 1916/1917 35012KT 6000 BR BKN015 620155 QNH3001INS
TEMPO 1917/1920 4800 -SN BR OVC010 620106 TX04/1904Z TNM02/1920Z
RKRR FIR / Asia



MET'MAP, your aeronautical weather chart ! - Copyright ORBIFLY December 2007 - Disclaimer

ORBIFLY MET'MAP TEAM :

Programming & Development : Alexandra Zaïnal
Concept & Development : Baudouin d'Aumeries
Co-Development & Prog : Marc-Olivier Méhu
Technical & hardware support : Manuel Goepfert

Contact : metmap@orbifly.com




SOURCES & CREDITS :

   NOAA       Earth
Advisory